Latest Coastal Weather Observations for Norah Head

IDN60701

Issued at 9:31 am EST Saturday 29 April 2017 (issued every 10 minutes, with the page automatically refreshed every 10 minutes)

About coastal observations | Map of coastal stations | Coastal observations for NSW | Marine services | Other Formats
Station Details ID: 061366 Name: NORAH HEAD AWS Lat: -33.28 Lon: 151.58 Height: 18.8 m
Data from the previous 72 hours. | See also: Recent months at Norah Head
Date/Time
EST
Temp
°C
Wind Pressure Rain since
9am
mm
Weather Cloud Vis
km
Sea
Height
m
Swell
Dir  Spd
kts
Gust
kts
hPa Trend Height
m
Period
s
Dir
29/09:30am 16.8 WSW 3 5 1020.4 - 0.0 - - - - - - -
29/09:00am 16.1 SW 1 2 1020.6 - 0.0 - - - - - - -
29/08:30am 14.9 W 3 7 1020.5 - 0.0 - - - - - - -
29/08:00am 13.9 WSW 6 9 1020.4 - 0.0 - - - - - - -
29/07:30am 13.7 W 7 10 1020.2 - 0.0 - - - - - - -
29/07:00am 12.5 W 8 11 1019.9 - 0.0 - - - - - - -
29/06:30am 12.2 W 9 12 1019.8 - 0.0 - - - - - - -
29/06:00am 12.6 W 10 12 1019.4 - 0.0 - - - - - - -
29/05:30am 13.0 W 9 13 1019.0 - 0.0 - - - - - - -
29/05:00am 13.0 W 9 13 1019.0 - 0.0 - - - - - - -
29/04:30am 12.7 W 9 12 1019.1 - 0.0 - - - - - - -
29/04:00am 12.6 W 9 13 1019.1 - 0.0 - - - - - - -
29/03:30am 13.2 W 8 11 1019.0 - 0.0 - - - - - - -
29/03:00am 12.7 W 8 11 1019.0 - 0.0 - - - - - - -
29/02:30am 13.2 W 8 11 1019.3 - 0.0 - - - - - - -
29/02:00am 13.5 W 8 10 1019.5 - 0.0 - - - - - - -
29/01:30am 14.2 W 7 10 1019.7 - 0.0 - - - - - - -
29/01:00am 13.9 W 8 10 1020.0 - 0.0 - - - - - - -
29/12:30am 14.4 W 7 9 1020.0 - 0.0 - - - - - - -
29/12:00am 13.7 W 8 10 1020.3 - 0.0 - - - - - - -
 
Date/Time
EST
Temp
°C
Wind Pressure Rain since
9am
mm
Weather Cloud Vis
km
Sea
Height
m
Swell
Dir  Spd
kts
Gust
kts
hPa Trend Height
m
Period
s
Dir
28/11:30pm 13.7 W 9 11 1020.5 - 0.0 - - - - - - -
28/11:00pm 13.9 W 8 10 1020.5 - 0.0 - - - - - - -
28/10:30pm 13.9 W 8 10 1020.9 - 0.0 - - - - - - -
28/10:00pm 14.1 W 8 10 1021.1 - 0.0 - - - - - - -
28/09:30pm 14.3 W 8 9 1021.1 - 0.0 - - - - - - -
28/09:00pm 14.5 W 6 8 1021.0 - 0.0 - - - - - - -
28/08:30pm 14.9 W 6 8 1021.0 - 0.0 - - - - - - -
28/08:00pm 15.3 W 6 8 1020.9 - 0.0 - - - - - - -
28/07:30pm 16.2 WSW 5 7 1020.9 - 0.0 - - - - - - -
28/07:00pm 16.6 SSW 3 5 1020.9 - 0.0 - - - - - - -
28/06:30pm 17.3 SSW 6 9 1020.6 - 0.0 - - - - - - -
28/06:00pm 17.3 SSW 7 9 1020.5 - 0.0 - - - - - - -
28/05:30pm 17.0 S 7 10 1020.4 - 0.0 - - - - - - -
28/05:00pm 17.3 S 9 12 1020.2 - 0.0 - - - - - - -
28/04:30pm 17.3 S 11 14 1020.0 - 0.0 - - - - - - -
28/04:00pm 17.7 S 12 15 1020.1 - 0.0 - - - - - - -
28/03:30pm 17.8 S 11 15 1020.2 - 0.0 - - - - - - -
28/03:00pm 18.2 S 12 15 1020.3 - 0.0 - - - - - - -
28/02:30pm 18.3 S 11 14 1020.1 - 0.0 - - - - - - -
28/02:00pm 18.4 S 12 15 1020.3 - 0.0 - - - - - - -
28/01:30pm 18.1 S 14 16 1020.4 - 0.0 - - - - - - -
28/01:00pm 18.1 SSW 11 15 1020.7 - 0.0 - - - - - - -
28/12:30pm 17.9 SSW 11 15 1021.1 - 0.0 - - - - - - -
28/12:00pm 17.7 SSW 12 16 1021.5 - 0.0 - - - - - - -
28/11:30am 17.6 SSW 12 16 1021.9 - 0.0 - - - - - - -
28/11:00am 17.2 SSW 10 14 1022.0 - 0.0 - - - - - - -
28/10:30am 16.7 SW 11 17 1022.1 - 0.0 - - - - - - -
28/10:00am 16.3 SW 12 19 1022.1 - 0.0 - - - - - - -
28/09:30am 16.1 SW 6 10 1022.0 - 0.0 - - - - - - -
28/09:00am 15.0 WSW 8 14 1022.0 - 1.2 - - - - - - -
28/08:30am 14.7 WSW 7 12 1021.8 - 1.2 - - - - - - -
28/08:00am 14.0 WSW 8 13 1021.4 - 1.2 - - - - - - -
28/07:30am 13.4 WSW 6 10 1021.1 - 1.2 - - - - - - -
28/07:00am 12.7 WSW 6 10 1020.7 - 1.2 - - - - - - -
28/06:30am 12.5 WSW 8 12 1020.4 - 1.2 - - - - - - -
28/06:00am 12.6 WSW 7 13 1020.1 - 1.2 - - - - - - -
28/05:30am 13.2 WSW 9 13 1019.9 - 1.2 - - - - - - -
28/05:00am 13.4 WSW 8 12 1019.6 - 1.2 - - - - - - -
28/04:30am 14.5 SW 10 17 1019.2 - 1.2 - - - - - - -
28/04:00am 14.9 SW 12 16 1019.0 - 1.2 - - - - - - -
28/03:30am 15.0 SW 13 19 1018.7 - 1.2 - - - - - - -
28/03:00am 15.2 SW 13 19 1018.6 - 1.2 - - - - - - -
28/02:30am 15.1 SW 12 22 1018.4 - 1.2 - - - - - - -
28/02:00am 14.6 SW 16 24 1018.4 - 1.2 - - - - - - -
28/01:30am 15.0 SSW 18 25 1018.4 - 1.2 - - - - - - -
28/01:13am 15.4 SSW 18 29 1018.3 - 1.2 - - - - - - -
28/01:00am 15.3 SW 14 23 1018.2 - 1.2 - - - - - - -
28/12:30am 15.6 SW 11 20 1018.0 - 1.0 - - - - - - -
28/12:00am 15.1 SW 9 17 1018.0 - 1.0 Recent precip. - - - - - -
 
Date/Time
EST
Temp
°C
Wind Pressure Rain since
9am
mm
Weather Cloud Vis
km
Sea
Height
m
Swell
Dir  Spd
kts
Gust
kts
hPa Trend Height
m
Period
s
Dir
27/11:30pm 15.9 SW 11 20 1018.0 - 0.8 - - - - - - -
27/11:00pm 16.1 WSW 8 14 1017.9 - 0.6 - - - - - - -
27/10:30pm 16.4 SW 9 15 1017.8 - 0.6 - - - - - - -
27/10:00pm 15.9 SSW 18 26 1017.9 - 0.6 - - - - - - -
27/09:44pm 16.1 SSW 13 26 1017.9 - 0.6 - - - - - - -
27/09:43pm 16.4 SSW 12 24 1017.9 - 0.6 - - - - - - -
27/09:30pm 16.1 SW 8 13 1017.7 - 0.4 - - - - - - -
27/09:00pm 16.7 SSW 14 21 1017.6 - 0.4 Rain - - - - - -
27/08:30pm 15.7 SW 6 11 1017.6 - 0.2 - - - - - - -
27/08:00pm 16.2 SSW 13 19 1017.6 - 0.2 - - - - - - -
27/07:43pm 16.6 SW 10 23 1017.5 - 0.0 - - - - - - -
27/07:30pm 15.8 SW 7 11 1017.3 - 0.0 - - - - - - -
27/07:00pm 16.1 WSW 6 10 1017.1 - 0.0 - - - - - - -
27/06:30pm 16.2 SW 7 12 1016.7 - 0.0 - - - - - - -
27/06:00pm 16.6 SW 7 13 1016.2 - 0.0 - - - - - - -
27/05:30pm 17.1 SSW 15 21 1015.9 - 0.0 - - - - - - -
27/05:00pm 17.1 SSW 14 19 1015.6 - 0.0 - - - - - - -
27/04:30pm 17.1 SSW 15 20 1015.2 - 0.0 - - - - - - -
27/04:00pm 17.3 SSW 16 24 1015.0 - 0.0 - - - - - - -
27/03:30pm 17.3 SSW 15 20 1015.0 - 0.0 - - - - - - -
27/03:00pm 17.4 SSW 15 19 1014.9 - 0.0 - - - - - - -
27/02:30pm 17.4 SSW 12 17 1014.7 - 0.0 - - - - - - -
27/02:00pm 17.3 SSW 12 17 1014.5 - 0.0 - - - - - - -
27/01:30pm 17.2 SSW 11 14 1014.5 - 0.0 - - - - - - -
27/01:00pm 17.2 SSW 10 15 1014.4 - 0.0 - - - - - - -
27/12:30pm 17.1 SSW 11 16 1014.7 - 0.0 - - - - - - -
27/12:00pm 17.2 SSW 9 15 1014.8 - 0.0 - - - - - - -
27/11:30am 16.5 SSW 8 15 1014.8 - 0.0 - - - - - - -
27/11:00am 16.2 SW 7 12 1015.0 - 0.0 - - - - - - -
27/10:30am 16.3 SW 7 12 1014.9 - 0.0 - - - - - - -
27/10:00am 15.4 SW 9 19 1014.9 - 0.0 - - - - - - -
27/09:30am 14.9 SW 7 15 1014.9 - 0.0 - - - - - - -
27/09:00am 14.8 SW 8 15 1014.8 - 2.6 - - - - - - -
27/08:30am 15.3 SW 9 15 1014.4 - 2.6 - - - - - - -
27/08:00am 14.5 WSW 7 11 1014.3 - 2.6 - - - - - - -
27/07:30am 13.5 WSW 6 9 1014.0 - 2.6 - - - - - - -
27/07:00am 13.2 WSW 7 11 1013.4 - 2.6 - - - - - - -
27/06:30am 13.1 WSW 7 11 1013.0 - 2.6 - - - - - - -
27/06:00am 13.3 WSW 7 11 1012.7 - 2.6 - - - - - - -
27/05:30am 13.7 WSW 7 11 1012.3 - 2.6 - - - - - - -
27/05:00am 13.8 WSW 7 12 1011.8 - 2.6 - - - - - - -
27/04:30am 14.0 WSW 6 11 1011.3 - 2.6 - - - - - - -
27/04:00am 14.1 WSW 7 11 1011.0 - 2.6 - - - - - - -
27/03:30am 14.2 WSW 7 12 1010.9 - 2.6 - - - - - - -
27/03:00am 14.2 WSW 6 11 1010.9 - 2.6 - - - - - - -
27/02:30am 14.2 WSW 5 9 1011.0 - 2.6 - - - - - - -
27/02:00am 14.3 WSW 6 10 1011.2 - 2.6 - - - - - - -
27/01:30am 14.0 W 5 10 1011.0 - 2.6 - - - - - - -
27/01:00am 14.3 W 5 10 1011.0 - 2.6 - - - - - - -
27/12:30am 14.1 W 6 12 1010.8 - 2.6 - - - - - - -
27/12:00am 13.5 WNW 5 9 1010.4 - 2.6 - - - - - - -
 
Date/Time
EST
Temp
°C
Wind Pressure Rain since
9am
mm
Weather Cloud Vis
km
Sea
Height
m
Swell
Dir  Spd
kts
Gust
kts
hPa Trend Height
m
Period
s
Dir
26/11:30pm 13.4 WNW 5 8 1010.2 - 2.6 - - - - - - -
26/11:00pm 13.4 WNW 5 11 1010.4 - 2.6 - - - - - - -
26/10:30pm 13.3 W 5 10 1010.5 - 2.6 - - - - - - -
26/10:00pm 13.2 WNW 5 9 1010.2 - 2.6 - - - - - - -
26/09:30pm 13.1 WNW 5 12 1009.7 - 2.6 - - - - - - -
26/09:00pm 13.1 WNW 7 15 1009.3 - 2.6 - - - - - - -
26/08:30pm 13.2 WNW 6 12 1008.8 - 2.6 - - - - - - -
26/08:00pm 13.2 WNW 6 13 1008.1 - 2.6 - - - - - - -
26/07:30pm 13.2 WNW 8 16 1007.7 - 2.6 - - - - - - -
26/07:00pm 13.3 WNW 6 13 1007.3 - 2.6 - - - - - - -
26/06:30pm 13.0 WNW 6 13 1006.5 - 2.6 - - - - - - -
26/06:00pm 13.1 WNW 6 11 1005.9 - 2.6 - - - - - - -
26/05:30pm 13.2 WNW 5 12 1005.8 - 2.6 - - - - - - -
26/05:00pm 13.6 WNW 5 9 1005.9 - 2.6 - - - - - - -
26/04:30pm 13.9 W 7 13 1005.3 - 2.4 - - - - - - -
26/04:00pm 15.8 W 11 24 1005.3 - 0.8 - - - - - - -
26/03:30pm 19.9 WSW 8 15 1003.4 - 0.0 - - - - - - -
26/03:00pm 20.5 SW 10 17 1002.9 - 0.0 - - - - - - -
26/02:30pm 23.8 W 6 15 1002.3 - 0.0 - - - - - - -
26/02:00pm 24.1 WNW 6 15 1002.2 - 0.0 - - - - - - -
26/01:30pm 23.9 NW 6 14 1002.4 - 0.0 - - - - - - -
26/01:00pm 24.1 WNW 3 9 1002.9 - 0.0 - - - - - - -
26/12:30pm 23.9 NW 5 15 1003.4 - 0.0 - - - - - - -
26/12:00pm 24.0 NW 5 12 1004.1 - 0.0 - - - - - - -
26/11:30am 23.8 WNW 4 9 1004.8 - 0.0 - - - - - - -
26/11:00am 23.1 NW 5 15 1005.3 - 0.0 - - - - - - -
26/10:30am 22.4 WNW 3 7 1006.1 - 0.0 - - - - - - -
26/10:00am 22.2 NW 4 9 1006.5 - 0.0 - - - - - - -

Other Formats:

Comma delimited format used in spreadsheet applications
http://www.bom.gov.au/fwo/IDN60701/IDN60701.95770.axf

JavaScript Object Notation format (JSON) in row-major order
http://www.bom.gov.au/fwo/IDN60701/IDN60701.95770.json